sensor_id;sensor_type;location;lat;lon;timestamp;temperature;humidity
2945;DHT22;1482;51.398;7.128;2024-03-06T00:02:06;5.60;99.90
2945;DHT22;1482;51.398;7.128;2024-03-06T00:04:32;5.50;99.90
2945;DHT22;1482;51.398;7.128;2024-03-06T00:06:59;5.50;99.90
2945;DHT22;1482;51.398;7.128;2024-03-06T00:09:25;5.50;99.90
2945;DHT22;1482;51.398;7.128;2024-03-06T00:11:53;5.50;99.90
2945;DHT22;1482;51.398;7.128;2024-03-06T00:14:19;5.50;99.90
2945;DHT22;1482;51.398;7.128;2024-03-06T00:16:45;5.50;99.90
2945;DHT22;1482;51.398;7.128;2024-03-06T00:19:11;5.40;99.90
2945;DHT22;1482;51.398;7.128;2024-03-06T00:21:36;5.40;99.90
2945;DHT22;1482;51.398;7.128;2024-03-06T00:24:02;5.30;99.90
2945;DHT22;1482;51.398;7.128;2024-03-06T00:26:29;5.40;99.90
2945;DHT22;1482;51.398;7.128;2024-03-06T00:28:54;5.40;99.90
2945;DHT22;1482;51.398;7.128;2024-03-06T00:31:20;5.40;99.90
2945;DHT22;1482;51.398;7.128;2024-03-06T00:33:46;5.40;99.90
2945;DHT22;1482;51.398;7.128;2024-03-06T00:36:11;5.40;99.90
2945;DHT22;1482;51.398;7.128;2024-03-06T00:38:37;5.40;99.90
2945;DHT22;1482;51.398;7.128;2024-03-06T00:41:02;5.50;99.90
2945;DHT22;1482;51.398;7.128;2024-03-06T00:43:29;5.50;99.90
2945;DHT22;1482;51.398;7.128;2024-03-06T00:45:54;5.50;99.90
2945;DHT22;1482;51.398;7.128;2024-03-06T00:48:20;5.60;99.90
2945;DHT22;1482;51.398;7.128;2024-03-06T00:50:45;5.60;99.90
2945;DHT22;1482;51.398;7.128;2024-03-06T00:53:11;5.60;99.90
2945;DHT22;1482;51.398;7.128;2024-03-06T00:55:37;5.50;99.90
2945;DHT22;1482;51.398;7.128;2024-03-06T00:58:02;5.50;99.90
2945;DHT22;1482;51.398;7.128;2024-03-06T01:00:29;5.50;99.90
2945;DHT22;1482;51.398;7.128;2024-03-06T01:02:55;5.50;99.90
2945;DHT22;1482;51.398;7.128;2024-03-06T01:05:20;5.40;99.90
2945;DHT22;1482;51.398;7.128;2024-03-06T01:07:46;5.40;99.90
2945;DHT22;1482;51.398;7.128;2024-03-06T01:10:12;5.40;99.90
2945;DHT22;1482;51.398;7.128;2024-03-06T01:12:38;5.40;99.90
2945;DHT22;1482;51.398;7.128;2024-03-06T01:15:04;5.50;99.90
2945;DHT22;1482;51.398;7.128;2024-03-06T01:17:30;5.50;99.90
2945;DHT22;1482;51.398;7.128;2024-03-06T01:19:55;5.50;99.90
2945;DHT22;1482;51.398;7.128;2024-03-06T01:22:21;5.50;99.90
2945;DHT22;1482;51.398;7.128;2024-03-06T01:24:46;5.60;99.90
2945;DHT22;1482;51.398;7.128;2024-03-06T01:27:16;5.60;99.90
2945;DHT22;1482;51.398;7.128;2024-03-06T01:29:41;5.60;99.90
2945;DHT22;1482;51.398;7.128;2024-03-06T01:32:07;5.70;99.90
2945;DHT22;1482;51.398;7.128;2024-03-06T01:34:33;5.80;99.90
2945;DHT22;1482;51.398;7.128;2024-03-06T01:36:58;5.80;99.90
2945;DHT22;1482;51.398;7.128;2024-03-06T01:39:24;5.80;99.90
2945;DHT22;1482;51.398;7.128;2024-03-06T01:41:51;5.90;99.90
2945;DHT22;1482;51.398;7.128;2024-03-06T01:44:17;5.90;99.90
2945;DHT22;1482;51.398;7.128;2024-03-06T01:46:44;5.90;99.90
2945;DHT22;1482;51.398;7.128;2024-03-06T01:49:14;5.90;99.90
2945;DHT22;1482;51.398;7.128;2024-03-06T01:51:41;5.80;99.90
2945;DHT22;1482;51.398;7.128;2024-03-06T01:54:08;5.80;99.90
2945;DHT22;1482;51.398;7.128;2024-03-06T01:56:35;5.70;99.90
2945;DHT22;1482;51.398;7.128;2024-03-06T01:59:03;5.70;99.90
2945;DHT22;1482;51.398;7.128;2024-03-06T02:01:30;5.70;99.90
2945;DHT22;1482;51.398;7.128;2024-03-06T02:03:56;5.70;99.90
2945;DHT22;1482;51.398;7.128;2024-03-06T02:06:22;5.70;99.90
2945;DHT22;1482;51.398;7.128;2024-03-06T02:08:48;5.60;99.90
2945;DHT22;1482;51.398;7.128;2024-03-06T02:11:13;5.50;99.90
2945;DHT22;1482;51.398;7.128;2024-03-06T02:13:40;5.50;99.90
2945;DHT22;1482;51.398;7.128;2024-03-06T02:16:07;5.50;99.90
2945;DHT22;1482;51.398;7.128;2024-03-06T02:18:32;5.50;99.90
2945;DHT22;1482;51.398;7.128;2024-03-06T02:20:58;5.50;99.90
2945;DHT22;1482;51.398;7.128;2024-03-06T02:23:24;5.50;99.90
2945;DHT22;1482;51.398;7.128;2024-03-06T02:25:50;5.40;99.90
2945;DHT22;1482;51.398;7.128;2024-03-06T02:28:16;5.40;99.90
2945;DHT22;1482;51.398;7.128;2024-03-06T02:30:43;5.40;99.90
2945;DHT22;1482;51.398;7.128;2024-03-06T02:33:08;5.40;99.90
2945;DHT22;1482;51.398;7.128;2024-03-06T02:35:35;5.40;99.90
2945;DHT22;1482;51.398;7.128;2024-03-06T02:38:03;5.50;99.90
2945;DHT22;1482;51.398;7.128;2024-03-06T02:40:32;5.40;99.90
2945;DHT22;1482;51.398;7.128;2024-03-06T02:42:58;5.40;99.90
2945;DHT22;1482;51.398;7.128;2024-03-06T02:45:23;5.40;99.90
2945;DHT22;1482;51.398;7.128;2024-03-06T02:47:49;5.40;99.90
2945;DHT22;1482;51.398;7.128;2024-03-06T02:50:15;5.40;99.90
2945;DHT22;1482;51.398;7.128;2024-03-06T02:52:40;5.40;99.90
2945;DHT22;1482;51.398;7.128;2024-03-06T02:55:06;5.30;99.90
2945;DHT22;1482;51.398;7.128;2024-03-06T02:57:32;5.30;99.90
2945;DHT22;1482;51.398;7.128;2024-03-06T02:59:58;5.30;99.90
2945;DHT22;1482;51.398;7.128;2024-03-06T03:02:24;5.30;99.90
2945;DHT22;1482;51.398;7.128;2024-03-06T03:04:51;5.30;99.90
2945;DHT22;1482;51.398;7.128;2024-03-06T03:07:17;5.30;99.90
2945;DHT22;1482;51.398;7.128;2024-03-06T03:09:45;5.30;99.90
2945;DHT22;1482;51.398;7.128;2024-03-06T03:12:10;5.30;99.90
2945;DHT22;1482;51.398;7.128;2024-03-06T03:14:36;5.20;99.90
2945;DHT22;1482;51.398;7.128;2024-03-06T03:17:03;5.20;99.90
2945;DHT22;1482;51.398;7.128;2024-03-06T03:19:30;5.20;99.90
2945;DHT22;1482;51.398;7.128;2024-03-06T03:21:56;5.20;99.90
2945;DHT22;1482;51.398;7.128;2024-03-06T03:24:23;5.20;99.90
2945;DHT22;1482;51.398;7.128;2024-03-06T03:26:49;5.10;99.90
2945;DHT22;1482;51.398;7.128;2024-03-06T03:29:15;5.10;99.90
2945;DHT22;1482;51.398;7.128;2024-03-06T03:31:41;5.20;99.90
2945;DHT22;1482;51.398;7.128;2024-03-06T03:34:07;5.20;99.90
2945;DHT22;1482;51.398;7.128;2024-03-06T03:36:34;5.30;99.90
2945;DHT22;1482;51.398;7.128;2024-03-06T03:39:00;5.30;99.90
2945;DHT22;1482;51.398;7.128;2024-03-06T03:41:25;5.30;99.90
2945;DHT22;1482;51.398;7.128;2024-03-06T03:43:51;5.40;99.90
2945;DHT22;1482;51.398;7.128;2024-03-06T03:46:17;5.40;99.90
2945;DHT22;1482;51.398;7.128;2024-03-06T03:48:42;5.50;99.90
2945;DHT22;1482;51.398;7.128;2024-03-06T03:51:08;5.50;99.90
2945;DHT22;1482;51.398;7.128;2024-03-06T03:53:34;5.60;99.90
2945;DHT22;1482;51.398;7.128;2024-03-06T03:56:00;5.70;99.90
2945;DHT22;1482;51.398;7.128;2024-03-06T03:58:26;5.80;99.90
2945;DHT22;1482;51.398;7.128;2024-03-06T04:00:51;5.80;99.90
2945;DHT22;1482;51.398;7.128;2024-03-06T04:03:19;5.90;99.90
2945;DHT22;1482;51.398;7.128;2024-03-06T04:05:46;6.00;99.90
2945;DHT22;1482;51.398;7.128;2024-03-06T04:08:12;6.00;99.90
2945;DHT22;1482;51.398;7.128;2024-03-06T04:10:37;6.10;99.90
2945;DHT22;1482;51.398;7.128;2024-03-06T04:13:03;6.20;99.90
2945;DHT22;1482;51.398;7.128;2024-03-06T04:15:28;6.20;99.90
2945;DHT22;1482;51.398;7.128;2024-03-06T04:17:54;6.20;99.90
2945;DHT22;1482;51.398;7.128;2024-03-06T04:20:19;6.20;99.90
2945;DHT22;1482;51.398;7.128;2024-03-06T04:22:45;6.20;99.90
2945;DHT22;1482;51.398;7.128;2024-03-06T04:25:13;6.20;99.90
2945;DHT22;1482;51.398;7.128;2024-03-06T04:27:38;6.20;99.90
2945;DHT22;1482;51.398;7.128;2024-03-06T04:30:04;6.30;99.90
2945;DHT22;1482;51.398;7.128;2024-03-06T04:32:30;6.30;99.90
2945;DHT22;1482;51.398;7.128;2024-03-06T04:34:56;6.30;99.90
2945;DHT22;1482;51.398;7.128;2024-03-06T04:37:21;6.30;99.90
2945;DHT22;1482;51.398;7.128;2024-03-06T04:39:48;6.20;99.90
2945;DHT22;1482;51.398;7.128;2024-03-06T04:42:13;6.20;99.90
2945;DHT22;1482;51.398;7.128;2024-03-06T04:44:39;6.30;99.90
2945;DHT22;1482;51.398;7.128;2024-03-06T04:47:04;6.30;99.90
2945;DHT22;1482;51.398;7.128;2024-03-06T04:49:33;6.20;99.90
2945;DHT22;1482;51.398;7.128;2024-03-06T04:52:02;6.30;99.90
2945;DHT22;1482;51.398;7.128;2024-03-06T04:54:28;6.30;99.90
2945;DHT22;1482;51.398;7.128;2024-03-06T04:56:54;6.30;99.90
2945;DHT22;1482;51.398;7.128;2024-03-06T04:59:20;6.30;99.90
2945;DHT22;1482;51.398;7.128;2024-03-06T05:01:45;6.20;99.90
2945;DHT22;1482;51.398;7.128;2024-03-06T05:04:11;6.20;99.90
2945;DHT22;1482;51.398;7.128;2024-03-06T05:06:37;6.10;99.90
2945;DHT22;1482;51.398;7.128;2024-03-06T05:09:03;5.80;99.90
2945;DHT22;1482;51.398;7.128;2024-03-06T05:11:29;5.70;99.90
2945;DHT22;1482;51.398;7.128;2024-03-06T05:13:57;5.60;99.90
2945;DHT22;1482;51.398;7.128;2024-03-06T05:16:23;5.50;99.90
2945;DHT22;1482;51.398;7.128;2024-03-06T05:18:49;5.40;99.90
2945;DHT22;1482;51.398;7.128;2024-03-06T05:21:15;5.30;99.90
2945;DHT22;1482;51.398;7.128;2024-03-06T05:23:41;5.10;99.90
2945;DHT22;1482;51.398;7.128;2024-03-06T05:26:06;5.10;99.90
2945;DHT22;1482;51.398;7.128;2024-03-06T05:28:32;5.00;99.90
2945;DHT22;1482;51.398;7.128;2024-03-06T05:30:58;4.90;99.90
2945;DHT22;1482;51.398;7.128;2024-03-06T05:33:26;4.90;99.90
2945;DHT22;1482;51.398;7.128;2024-03-06T05:35:53;4.90;99.90
2945;DHT22;1482;51.398;7.128;2024-03-06T05:38:19;4.90;99.90
2945;DHT22;1482;51.398;7.128;2024-03-06T05:40:44;4.90;99.90
2945;DHT22;1482;51.398;7.128;2024-03-06T05:43:10;4.90;99.90
2945;DHT22;1482;51.398;7.128;2024-03-06T05:45:36;4.80;99.90
2945;DHT22;1482;51.398;7.128;2024-03-06T05:48:01;4.80;99.90
2945;DHT22;1482;51.398;7.128;2024-03-06T05:50:29;4.80;1.00
2945;DHT22;1482;51.398;7.128;2024-03-06T05:52:55;4.90;99.90
2945;DHT22;1482;51.398;7.128;2024-03-06T05:55:20;5.00;1.00
2945;DHT22;1482;51.398;7.128;2024-03-06T05:57:46;5.00;99.90
2945;DHT22;1482;51.398;7.128;2024-03-06T06:00:13;5.10;1.00
2945;DHT22;1482;51.398;7.128;2024-03-06T06:02:39;5.20;1.00
2945;DHT22;1482;51.398;7.128;2024-03-06T06:05:05;5.30;99.90
2945;DHT22;1482;51.398;7.128;2024-03-06T06:07:30;5.30;99.90
2945;DHT22;1482;51.398;7.128;2024-03-06T06:09:56;5.30;99.90
2945;DHT22;1482;51.398;7.128;2024-03-06T06:12:21;5.40;1.00
2945;DHT22;1482;51.398;7.128;2024-03-06T06:14:47;5.50;99.90
2945;DHT22;1482;51.398;7.128;2024-03-06T06:17:13;5.60;1.00
2945;DHT22;1482;51.398;7.128;2024-03-06T06:19:42;5.70;99.90
2945;DHT22;1482;51.398;7.128;2024-03-06T06:22:08;5.70;86.10
2945;DHT22;1482;51.398;7.128;2024-03-06T06:24:33;5.70;1.00
2945;DHT22;1482;51.398;7.128;2024-03-06T06:26:59;5.70;1.00
2945;DHT22;1482;51.398;7.128;2024-03-06T06:29:24;5.70;1.00
2945;DHT22;1482;51.398;7.128;2024-03-06T06:31:50;5.70;1.00
2945;DHT22;1482;51.398;7.128;2024-03-06T06:34:15;5.80;1.00
2945;DHT22;1482;51.398;7.128;2024-03-06T06:36:45;5.80;1.00
2945;DHT22;1482;51.398;7.128;2024-03-06T06:39:11;5.80;1.00
2945;DHT22;1482;51.398;7.128;2024-03-06T06:41:37;5.90;1.00
2945;DHT22;1482;51.398;7.128;2024-03-06T06:44:03;6.10;1.00
2945;DHT22;1482;51.398;7.128;2024-03-06T06:46:28;6.20;26.00
2945;DHT22;1482;51.398;7.128;2024-03-06T06:48:54;6.50;99.90
2945;DHT22;1482;51.398;7.128;2024-03-06T06:51:20;6.60;99.90
2945;DHT22;1482;51.398;7.128;2024-03-06T06:53:46;6.70;99.90
2945;DHT22;1482;51.398;7.128;2024-03-06T06:56:11;7.00;99.90
2945;DHT22;1482;51.398;7.128;2024-03-06T06:58:37;7.30;99.90
2945;DHT22;1482;51.398;7.128;2024-03-06T07:01:02;7.50;99.90
2945;DHT22;1482;51.398;7.128;2024-03-06T07:03:29;7.90;1.00
2945;DHT22;1482;51.398;7.128;2024-03-06T07:05:56;8.30;1.00
2945;DHT22;1482;51.398;7.128;2024-03-06T07:08:22;8.90;99.90
2945;DHT22;1482;51.398;7.128;2024-03-06T07:10:48;9.50;99.90
2945;DHT22;1482;51.398;7.128;2024-03-06T07:13:13;10.20;99.90
2945;DHT22;1482;51.398;7.128;2024-03-06T07:15:39;11.20;99.90
2945;DHT22;1482;51.398;7.128;2024-03-06T07:18:05;12.10;99.90
2945;DHT22;1482;51.398;7.128;2024-03-06T07:20:30;13.20;99.90
2945;DHT22;1482;51.398;7.128;2024-03-06T07:22:57;14.40;73.10
2945;DHT22;1482;51.398;7.128;2024-03-06T07:25:23;15.60;40.20
2945;DHT22;1482;51.398;7.128;2024-03-06T07:27:48;16.90;20.30
2945;DHT22;1482;51.398;7.128;2024-03-06T07:30:14;18.20;10.80
2945;DHT22;1482;51.398;7.128;2024-03-06T07:32:39;19.40;8.30
2945;DHT22;1482;51.398;7.128;2024-03-06T07:35:06;20.60;9.10
2945;DHT22;1482;51.398;7.128;2024-03-06T07:37:32;21.80;17.50
2945;DHT22;1482;51.398;7.128;2024-03-06T07:39:59;23.00;9.70
2945;DHT22;1482;51.398;7.128;2024-03-06T07:42:25;24.20;12.70
2945;DHT22;1482;51.398;7.128;2024-03-06T07:44:51;25.20;15.70
2945;DHT22;1482;51.398;7.128;2024-03-06T07:47:16;26.20;19.60
2945;DHT22;1482;51.398;7.128;2024-03-06T07:49:42;27.10;23.50
2945;DHT22;1482;51.398;7.128;2024-03-06T07:52:10;27.90;26.60
2945;DHT22;1482;51.398;7.128;2024-03-06T07:54:35;28.60;29.70
2945;DHT22;1482;51.398;7.128;2024-03-06T07:57:01;29.30;33.60
2945;DHT22;1482;51.398;7.128;2024-03-06T07:59:27;29.80;37.20
2945;DHT22;1482;51.398;7.128;2024-03-06T08:01:52;30.40;40.70
2945;DHT22;1482;51.398;7.128;2024-03-06T08:04:18;31.00;44.50
2945;DHT22;1482;51.398;7.128;2024-03-06T08:06:44;31.30;45.50
2945;DHT22;1482;51.398;7.128;2024-03-06T08:09:09;31.80;48.10
2945;DHT22;1482;51.398;7.128;2024-03-06T08:11:35;32.40;50.00
2945;DHT22;1482;51.398;7.128;2024-03-06T08:14:01;32.40;48.30
2945;DHT22;1482;51.398;7.128;2024-03-06T08:16:30;32.50;45.90
2945;DHT22;1482;51.398;7.128;2024-03-06T08:18:55;32.20;41.20
2945;DHT22;1482;51.398;7.128;2024-03-06T08:21:22;32.10;37.90
2945;DHT22;1482;51.398;7.128;2024-03-06T08:23:48;31.80;33.10
2945;DHT22;1482;51.398;7.128;2024-03-06T08:26:14;31.90;31.30
2945;DHT22;1482;51.398;7.128;2024-03-06T08:28:40;31.50;27.90
2945;DHT22;1482;51.398;7.128;2024-03-06T08:31:05;30.80;21.50
2945;DHT22;1482;51.398;7.128;2024-03-06T08:33:31;29.70;13.00
2945;DHT22;1482;51.398;7.128;2024-03-06T08:35:56;28.40;4.10
2945;DHT22;1482;51.398;7.128;2024-03-06T08:38:23;27.10;1.00
2945;DHT22;1482;51.398;7.128;2024-03-06T08:40:48;26.50;1.00
2945;DHT22;1482;51.398;7.128;2024-03-06T08:43:14;26.00;1.00
2945;DHT22;1482;51.398;7.128;2024-03-06T08:45:41;26.10;1.00
2945;DHT22;1482;51.398;7.128;2024-03-06T08:48:06;26.40;1.00
2945;DHT22;1482;51.398;7.128;2024-03-06T08:50:32;27.20;1.00
2945;DHT22;1482;51.398;7.128;2024-03-06T08:52:57;28.00;1.00
2945;DHT22;1482;51.398;7.128;2024-03-06T08:55:23;28.90;1.00
2945;DHT22;1482;51.398;7.128;2024-03-06T08:57:49;29.30;1.00
2945;DHT22;1482;51.398;7.128;2024-03-06T09:00:16;29.40;1.00
2945;DHT22;1482;51.398;7.128;2024-03-06T09:02:43;29.80;1.00
2945;DHT22;1482;51.398;7.128;2024-03-06T09:05:09;29.70;1.00
2945;DHT22;1482;51.398;7.128;2024-03-06T09:07:38;30.20;1.00
2945;DHT22;1482;51.398;7.128;2024-03-06T09:12:31;31.00;2.80
2945;DHT22;1482;51.398;7.128;2024-03-06T09:14:57;31.60;5.50
2945;DHT22;1482;51.398;7.128;2024-03-06T09:17:25;31.70;5.20
2945;DHT22;1482;51.398;7.128;2024-03-06T09:19:51;31.90;5.60
2945;DHT22;1482;51.398;7.128;2024-03-06T09:22:17;31.90;5.40
2945;DHT22;1482;51.398;7.128;2024-03-06T09:24:43;31.60;1.90
2945;DHT22;1482;51.398;7.128;2024-03-06T09:27:08;31.60;1.00
2945;DHT22;1482;51.398;7.128;2024-03-06T09:29:34;31.70;1.00
2945;DHT22;1482;51.398;7.128;2024-03-06T09:32:00;32.00;1.00
2945;DHT22;1482;51.398;7.128;2024-03-06T09:34:25;32.00;1.00
2945;DHT22;1482;51.398;7.128;2024-03-06T09:36:51;32.20;1.00
2945;DHT22;1482;51.398;7.128;2024-03-06T09:39:18;32.20;1.00
2945;DHT22;1482;51.398;7.128;2024-03-06T09:41:51;32.50;1.00
2945;DHT22;1482;51.398;7.128;2024-03-06T09:44:18;33.20;2.60
2945;DHT22;1482;51.398;7.128;2024-03-06T09:46:44;33.70;5.00
2945;DHT22;1482;51.398;7.128;2024-03-06T09:49:15;33.20;2.60
2945;DHT22;1482;51.398;7.128;2024-03-06T09:51:45;30.90;1.00
2945;DHT22;1482;51.398;7.128;2024-03-06T09:54:15;28.00;1.00
2945;DHT22;1482;51.398;7.128;2024-03-06T09:56:44;25.80;1.00
2945;DHT22;1482;51.398;7.128;2024-03-06T09:59:11;23.70;1.00
2945;DHT22;1482;51.398;7.128;2024-03-06T10:01:49;22.30;1.00
2945;DHT22;1482;51.398;7.128;2024-03-06T10:04:25;20.90;1.00
2945;DHT22;1482;51.398;7.128;2024-03-06T10:06:56;19.70;1.00
2945;DHT22;1482;51.398;7.128;2024-03-06T10:09:22;18.70;1.00
2945;DHT22;1482;51.398;7.128;2024-03-06T10:11:48;17.90;1.00
2945;DHT22;1482;51.398;7.128;2024-03-06T10:14:14;17.40;1.00
2945;DHT22;1482;51.398;7.128;2024-03-06T10:16:58;16.70;1.00
2945;DHT22;1482;51.398;7.128;2024-03-06T10:19:26;16.30;1.00
2945;DHT22;1482;51.398;7.128;2024-03-06T10:21:55;16.70;1.00
2945;DHT22;1482;51.398;7.128;2024-03-06T10:24:24;16.60;1.00
2945;DHT22;1482;51.398;7.128;2024-03-06T10:26:50;16.40;1.00
2945;DHT22;1482;51.398;7.128;2024-03-06T10:29:20;16.00;1.00
2945;DHT22;1482;51.398;7.128;2024-03-06T10:34:20;15.70;1.00
2945;DHT22;1482;51.398;7.128;2024-03-06T10:36:49;15.70;1.00
2945;DHT22;1482;51.398;7.128;2024-03-06T10:39:20;15.70;1.00
2945;DHT22;1482;51.398;7.128;2024-03-06T10:41:51;15.90;1.00
2945;DHT22;1482;51.398;7.128;2024-03-06T10:44:21;15.90;1.00
2945;DHT22;1482;51.398;7.128;2024-03-06T10:47:09;16.00;1.00
2945;DHT22;1482;51.398;7.128;2024-03-06T10:49:35;16.30;1.00
2945;DHT22;1482;51.398;7.128;2024-03-06T10:52:03;16.50;1.00
2945;DHT22;1482;51.398;7.128;2024-03-06T10:54:33;16.50;1.00
2945;DHT22;1482;51.398;7.128;2024-03-06T10:57:00;16.40;1.00
2945;DHT22;1482;51.398;7.128;2024-03-06T10:59:28;16.60;1.00
2945;DHT22;1482;51.398;7.128;2024-03-06T11:01:57;16.80;1.00
2945;DHT22;1482;51.398;7.128;2024-03-06T11:04:27;16.60;1.00
2945;DHT22;1482;51.398;7.128;2024-03-06T11:06:56;16.50;1.00
2945;DHT22;1482;51.398;7.128;2024-03-06T11:09:23;16.60;1.00
2945;DHT22;1482;51.398;7.128;2024-03-06T11:11:50;16.60;1.00
2945;DHT22;1482;51.398;7.128;2024-03-06T11:14:17;16.70;1.00
2945;DHT22;1482;51.398;7.128;2024-03-06T11:17:12;16.80;1.00
2945;DHT22;1482;51.398;7.128;2024-03-06T11:28:22;16.60;1.00
2945;DHT22;1482;51.398;7.128;2024-03-06T11:30:54;16.70;1.00
2945;DHT22;1482;51.398;7.128;2024-03-06T11:33:20;16.80;1.00
2945;DHT22;1482;51.398;7.128;2024-03-06T11:38:52;16.80;1.00
2945;DHT22;1482;51.398;7.128;2024-03-06T11:41:19;17.10;1.00
2945;DHT22;1482;51.398;7.128;2024-03-06T11:43:45;17.00;1.00
2945;DHT22;1482;51.398;7.128;2024-03-06T11:46:14;16.90;1.00
2945;DHT22;1482;51.398;7.128;2024-03-06T11:48:40;16.70;1.00
2945;DHT22;1482;51.398;7.128;2024-03-06T11:51:06;16.40;1.00
2945;DHT22;1482;51.398;7.128;2024-03-06T11:53:35;16.20;1.00
2945;DHT22;1482;51.398;7.128;2024-03-06T11:56:06;16.40;1.00
2945;DHT22;1482;51.398;7.128;2024-03-06T11:58:33;16.30;1.00
2945;DHT22;1482;51.398;7.128;2024-03-06T12:00:59;16.30;1.00
2945;DHT22;1482;51.398;7.128;2024-03-06T12:03:27;16.10;1.00
2945;DHT22;1482;51.398;7.128;2024-03-06T12:05:53;16.10;1.00
2945;DHT22;1482;51.398;7.128;2024-03-06T12:08:18;15.80;1.00
2945;DHT22;1482;51.398;7.128;2024-03-06T12:10:45;15.80;1.00
2945;DHT22;1482;51.398;7.128;2024-03-06T12:13:11;15.90;1.00
2945;DHT22;1482;51.398;7.128;2024-03-06T12:15:37;15.90;1.00
2945;DHT22;1482;51.398;7.128;2024-03-06T12:18:02;15.60;1.00
2945;DHT22;1482;51.398;7.128;2024-03-06T12:20:28;15.70;1.00
2945;DHT22;1482;51.398;7.128;2024-03-06T12:22:56;15.70;1.00
2945;DHT22;1482;51.398;7.128;2024-03-06T12:25:24;15.70;1.00
2945;DHT22;1482;51.398;7.128;2024-03-06T12:27:51;15.80;1.00
2945;DHT22;1482;51.398;7.128;2024-03-06T12:30:22;15.60;1.00
2945;DHT22;1482;51.398;7.128;2024-03-06T12:33:01;15.60;1.00
2945;DHT22;1482;51.398;7.128;2024-03-06T12:35:31;15.60;1.00
2945;DHT22;1482;51.398;7.128;2024-03-06T12:37:57;15.50;1.00
2945;DHT22;1482;51.398;7.128;2024-03-06T12:40:23;15.50;1.00
2945;DHT22;1482;51.398;7.128;2024-03-06T12:42:49;15.50;1.00
2945;DHT22;1482;51.398;7.128;2024-03-06T12:45:17;15.60;1.00
2945;DHT22;1482;51.398;7.128;2024-03-06T12:47:44;15.70;1.00
2945;DHT22;1482;51.398;7.128;2024-03-06T12:50:14;15.80;1.00
2945;DHT22;1482;51.398;7.128;2024-03-06T12:52:40;15.90;1.00
2945;DHT22;1482;51.398;7.128;2024-03-06T12:55:06;15.80;1.00
2945;DHT22;1482;51.398;7.128;2024-03-06T12:57:33;15.60;1.00
2945;DHT22;1482;51.398;7.128;2024-03-06T12:59:58;15.10;1.00
2945;DHT22;1482;51.398;7.128;2024-03-06T13:02:25;14.90;1.00
2945;DHT22;1482;51.398;7.128;2024-03-06T13:04:51;14.70;1.00
2945;DHT22;1482;51.398;7.128;2024-03-06T13:07:16;14.60;1.00
2945;DHT22;1482;51.398;7.128;2024-03-06T13:09:42;14.50;1.00
2945;DHT22;1482;51.398;7.128;2024-03-06T13:12:08;14.70;1.00
2945;DHT22;1482;51.398;7.128;2024-03-06T13:14:33;14.80;1.00
2945;DHT22;1482;51.398;7.128;2024-03-06T13:17:00;14.90;1.00
2945;DHT22;1482;51.398;7.128;2024-03-06T13:19:25;15.00;1.00
2945;DHT22;1482;51.398;7.128;2024-03-06T13:21:51;15.20;1.00
2945;DHT22;1482;51.398;7.128;2024-03-06T13:24:18;15.30;1.00
2945;DHT22;1482;51.398;7.128;2024-03-06T13:26:45;15.40;1.00
2945;DHT22;1482;51.398;7.128;2024-03-06T13:29:10;15.40;1.00
2945;DHT22;1482;51.398;7.128;2024-03-06T13:31:36;15.60;1.00
2945;DHT22;1482;51.398;7.128;2024-03-06T13:34:03;15.70;1.00
2945;DHT22;1482;51.398;7.128;2024-03-06T13:36:29;15.70;1.00
2945;DHT22;1482;51.398;7.128;2024-03-06T13:38:55;15.70;1.00
2945;DHT22;1482;51.398;7.128;2024-03-06T13:41:21;15.70;1.00
2945;DHT22;1482;51.398;7.128;2024-03-06T13:43:46;15.70;1.00
2945;DHT22;1482;51.398;7.128;2024-03-06T13:46:12;15.60;1.00
2945;DHT22;1482;51.398;7.128;2024-03-06T13:48:37;15.20;1.00
2945;DHT22;1482;51.398;7.128;2024-03-06T13:51:03;15.00;1.00
2945;DHT22;1482;51.398;7.128;2024-03-06T13:53:30;14.50;1.00
2945;DHT22;1482;51.398;7.128;2024-03-06T13:55:55;14.40;1.00
2945;DHT22;1482;51.398;7.128;2024-03-06T13:58:21;14.20;1.00
2945;DHT22;1482;51.398;7.128;2024-03-06T14:00:47;14.10;1.00
2945;DHT22;1482;51.398;7.128;2024-03-06T14:03:13;14.20;1.00
2945;DHT22;1482;51.398;7.128;2024-03-06T14:05:38;14.20;1.00
2945;DHT22;1482;51.398;7.128;2024-03-06T14:08:05;14.10;1.00
2945;DHT22;1482;51.398;7.128;2024-03-06T14:10:30;14.20;1.00
2945;DHT22;1482;51.398;7.128;2024-03-06T14:12:59;14.10;1.00
2945;DHT22;1482;51.398;7.128;2024-03-06T14:15:25;14.00;1.00
2945;DHT22;1482;51.398;7.128;2024-03-06T14:17:52;14.20;1.00
2945;DHT22;1482;51.398;7.128;2024-03-06T14:20:19;14.20;1.00
2945;DHT22;1482;51.398;7.128;2024-03-06T14:22:45;14.20;1.00
2945;DHT22;1482;51.398;7.128;2024-03-06T14:25:10;14.00;1.00
2945;DHT22;1482;51.398;7.128;2024-03-06T14:27:36;13.90;1.00
2945;DHT22;1482;51.398;7.128;2024-03-06T14:30:03;14.00;1.00
2945;DHT22;1482;51.398;7.128;2024-03-06T14:32:29;13.90;1.00
2945;DHT22;1482;51.398;7.128;2024-03-06T14:34:55;13.90;1.00
2945;DHT22;1482;51.398;7.128;2024-03-06T14:37:20;13.80;1.00
2945;DHT22;1482;51.398;7.128;2024-03-06T14:39:46;13.90;1.00
2945;DHT22;1482;51.398;7.128;2024-03-06T14:42:12;13.80;1.00
2945;DHT22;1482;51.398;7.128;2024-03-06T14:44:37;13.60;1.00
2945;DHT22;1482;51.398;7.128;2024-03-06T14:47:03;13.60;1.00
2945;DHT22;1482;51.398;7.128;2024-03-06T14:49:29;13.60;1.00
2945;DHT22;1482;51.398;7.128;2024-03-06T14:51:55;13.50;1.00
2945;DHT22;1482;51.398;7.128;2024-03-06T14:54:21;13.50;1.00
2945;DHT22;1482;51.398;7.128;2024-03-06T14:56:48;13.50;1.00
2945;DHT22;1482;51.398;7.128;2024-03-06T14:59:14;13.60;1.00
2945;DHT22;1482;51.398;7.128;2024-03-06T15:01:39;13.50;1.00
2945;DHT22;1482;51.398;7.128;2024-03-06T15:04:05;13.50;1.00
2945;DHT22;1482;51.398;7.128;2024-03-06T15:06:30;13.20;1.00
2945;DHT22;1482;51.398;7.128;2024-03-06T15:08:57;13.40;1.00
2945;DHT22;1482;51.398;7.128;2024-03-06T15:11:22;13.30;1.00
2945;DHT22;1482;51.398;7.128;2024-03-06T15:13:49;13.40;1.00
2945;DHT22;1482;51.398;7.128;2024-03-06T15:16:16;13.30;1.00
2945;DHT22;1482;51.398;7.128;2024-03-06T15:18:41;13.50;1.00
2945;DHT22;1482;51.398;7.128;2024-03-06T15:21:07;13.40;1.00
2945;DHT22;1482;51.398;7.128;2024-03-06T15:23:34;13.30;1.00
2945;DHT22;1482;51.398;7.128;2024-03-06T15:25:59;13.30;1.00
2945;DHT22;1482;51.398;7.128;2024-03-06T15:28:25;13.30;1.00
2945;DHT22;1482;51.398;7.128;2024-03-06T15:30:50;13.30;1.00
2945;DHT22;1482;51.398;7.128;2024-03-06T15:33:16;13.30;1.00
2945;DHT22;1482;51.398;7.128;2024-03-06T15:35:42;13.20;1.00
2945;DHT22;1482;51.398;7.128;2024-03-06T15:38:08;13.10;1.00
2945;DHT22;1482;51.398;7.128;2024-03-06T15:40:34;13.00;1.00
2945;DHT22;1482;51.398;7.128;2024-03-06T15:42:59;12.90;1.00
2945;DHT22;1482;51.398;7.128;2024-03-06T15:45:25;12.90;1.00
2945;DHT22;1482;51.398;7.128;2024-03-06T15:47:50;13.00;1.00
2945;DHT22;1482;51.398;7.128;2024-03-06T15:50:16;13.00;1.00
2945;DHT22;1482;51.398;7.128;2024-03-06T15:52:41;13.00;1.00
2945;DHT22;1482;51.398;7.128;2024-03-06T15:55:08;12.90;1.00
2945;DHT22;1482;51.398;7.128;2024-03-06T15:57:37;13.00;1.00
2945;DHT22;1482;51.398;7.128;2024-03-06T16:00:04;13.00;1.00
2945;DHT22;1482;51.398;7.128;2024-03-06T16:02:31;13.00;1.00
2945;DHT22;1482;51.398;7.128;2024-03-06T16:04:57;13.00;1.00
2945;DHT22;1482;51.398;7.128;2024-03-06T16:07:22;13.00;1.00
2945;DHT22;1482;51.398;7.128;2024-03-06T16:09:48;13.00;1.00
2945;DHT22;1482;51.398;7.128;2024-03-06T16:12:16;13.00;1.00
2945;DHT22;1482;51.398;7.128;2024-03-06T16:14:42;13.00;1.00
2945;DHT22;1482;51.398;7.128;2024-03-06T16:17:07;12.90;1.00
2945;DHT22;1482;51.398;7.128;2024-03-06T16:19:33;13.00;1.00
2945;DHT22;1482;51.398;7.128;2024-03-06T16:22:00;12.90;1.00
2945;DHT22;1482;51.398;7.128;2024-03-06T16:24:27;12.70;1.00
2945;DHT22;1482;51.398;7.128;2024-03-06T16:26:54;12.80;1.00
2945;DHT22;1482;51.398;7.128;2024-03-06T16:29:19;12.70;1.00